Ontonagon, MI (49953)

3:43 AM EDT on March 30, 2015 (GMT -0400)
APRSWXNET Silver City MI US | | Change Station
CLOSE
Current Station
Personal Weather Station
Location: White Pine, MI
Elevation: 634 ft
Nearby Weather Stations

Elev 634 ft 46.83 °N, 89.57 °W | Updated 33 minutes ago

Partly Cloudy
Partly Cloudy
41 °F
Feels Like 37 °F
N
6
Wind Variable Wind from West
Gusts 0.0 mph

Today
High -- | Low -- °F
--% Chance of Precip.
Yesterday
High -- | Low -- °F
Precip. -- in
7:40 AM 8:23 PM
Waxing Gibbous, 78% visible
Pressure 29.76 in
Visibility 10.0 miles
Clouds Clear
Windchill 37 °F
Dew Point 28 °F
Humidity 59%
Rainfall in
Snow Depth Not available.
UV 0 out of 12
Pollen .30 out of 12
Air Quality Not available.
Flu Activity Not available.
METAR KIWD 300735Z AUTO 26012KT 10SM CLR 02/M03 A2976 RMK AO1

More Conditions Fewer Conditions

Pressure 29.76 in
Visibility 10.0 miles
Clouds Clear
Windchill 37 °F
Dew Point 28 °F
Humidity 59%
Rainfall in
Snow Depth Not available.
UV 0 out of 12
Pollen .30 out of 12
Air Quality Not available.
Flu Activity Not available.
METAR KIWD 300735Z AUTO 26012KT 10SM CLR 02/M03 A2976 RMK AO1

More Conditions Fewer Conditions

10-Day Weather Forecast

Almanac

Astronomy

Mar. 30, 2015 Rise Set
Actual Time
Civil Twilight
Nautical Twilight
Astronomical Twilight
Moon
Length of Visible Light
Length of Day
Tomorrow will be .
, % of the Moon is Illuminated

Today's Extremes

State Highs State Lows

Community

WunderPhotos

Upload Photos

1,809,449 photos uploaded!

WunderBlogs® & News

Nearby

Air Quality

  Air Quality AQ Index Pollutant
Not available.

Snow Depth

Station Depth Elevation

Earthquake Activity

City Distance Mag. Time & Date
Minimum magnitude displayed is 2.5.

Coastal Water Temperatures

Place Temperature

Stations

Nearby Weather Stations

Station Location Temp. Windchill Dew Point Humidity Wind Precip. Elev Updated Type